createdAt,value
2022-12-31T05:02:31.871Z,98526.81
2022-12-31T05:06:43.451Z,98531.09
2022-12-31T05:10:54.941Z,98526.28
2022-12-31T05:15:07.992Z,98524.44
2022-12-31T05:19:19.580Z,98531.25
2022-12-31T05:23:31.058Z,98540.56
2022-12-31T05:27:43.663Z,98533.72
2022-12-31T05:31:55.182Z,98531.50
2022-12-31T05:36:06.967Z,98526.41
2022-12-31T05:40:18.854Z,98537.75
2022-12-31T05:44:30.329Z,98532.66
2022-12-31T05:48:41.837Z,98540.91
2022-12-31T05:52:53.321Z,98543.28
2022-12-31T05:57:05.216Z,98535.41
2022-12-31T06:01:16.788Z,98534.81
2022-12-31T06:05:28.347Z,98548.28
2022-12-31T06:09:39.862Z,98553.69
2022-12-31T06:13:51.553Z,98544.66
2022-12-31T06:18:04.345Z,98558.50
2022-12-31T06:22:16.217Z,98553.28
2022-12-31T06:26:28.045Z,98558.50
2022-12-31T06:30:39.552Z,98565.53
2022-12-31T06:34:51.048Z,98575.00
2022-12-31T06:39:02.538Z,98582.53
2022-12-31T06:43:14.034Z,98594.34
2022-12-31T06:47:25.905Z,98586.09
2022-12-31T06:51:38.051Z,98595.44
2022-12-31T06:55:50.131Z,98584.97
2022-12-31T07:00:01.951Z,98594.72
2022-12-31T07:04:34.590Z,98596.28
2022-12-31T07:09:06.936Z,98603.13
2022-12-31T07:13:39.615Z,98603.50
2022-12-31T07:18:13.772Z,98614.69
2022-12-31T07:22:26.557Z,98612.72
2022-12-31T07:26:52.563Z,98625.09
2022-12-31T07:31:32.659Z,98629.16
2022-12-31T07:36:34.273Z,98629.16
2022-12-31T07:41:13.581Z,98628.16
2022-12-31T07:45:29.570Z,98634.03
2022-12-31T07:49:42.822Z,98654.19
2022-12-31T07:53:54.291Z,98643.94
2022-12-31T07:58:22.233Z,98662.75
2022-12-31T08:03:11.099Z,98657.53
2022-12-31T08:08:00.309Z,98677.03
2022-12-31T08:12:11.920Z,98684.22
2022-12-31T08:16:23.667Z,98685.59
2022-12-31T08:21:00.880Z,98672.16
2022-12-31T08:25:27.481Z,98682.97
2022-12-31T08:29:46.505Z,98692.25
2022-12-31T08:34:31.699Z,98703.22
2022-12-31T08:39:02.139Z,98700.69
2022-12-31T08:43:32.887Z,98693.81
2022-12-31T08:48:04.561Z,98696.44
2022-12-31T08:52:23.140Z,98704.38
2022-12-31T08:56:43.703Z,98704.38
2022-12-31T09:00:59.234Z,98707.97
2022-12-31T09:05:32.489Z,98712.97
2022-12-31T09:10:02.884Z,98710.59
2022-12-31T09:14:45.045Z,98705.78
2022-12-31T09:18:56.557Z,98722.22
2022-12-31T09:23:08.259Z,98723.75
2022-12-31T09:27:54.614Z,98716.81
2022-12-31T09:32:06.069Z,98720.31
2022-12-31T09:36:34.344Z,98725.69
2022-12-31T09:41:22.918Z,98728.00
2022-12-31T09:46:08.781Z,98716.97
2022-12-31T09:50:35.578Z,98709.19
2022-12-31T09:55:17.906Z,98727.19
2022-12-31T10:00:01.356Z,98736.13
2022-12-31T10:04:58.149Z,98732.53
2022-12-31T10:09:40.068Z,98724.72
2022-12-31T10:14:13.537Z,98727.50
2022-12-31T10:18:54.513Z,98726.78
2022-12-31T10:23:35.271Z,98728.03
2022-12-31T10:27:59.314Z,98731.38
2022-12-31T10:32:31.722Z,98732.16
2022-12-31T10:36:53.289Z,98732.81
2022-12-31T10:41:38.553Z,98716.00
2022-12-31T10:46:34.834Z,98706.38
2022-12-31T10:51:11.200Z,98716.91
2022-12-31T10:55:55.637Z,98708.41
2022-12-31T11:00:16.252Z,98723.00
2022-12-31T11:04:27.693Z,98718.22
2022-12-31T11:09:10.049Z,98712.16
2022-12-31T11:14:18.884Z,98715.69
2022-12-31T11:18:39.919Z,98705.50
2022-12-31T11:23:09.118Z,98704.38
2022-12-31T11:27:49.292Z,98707.66
2022-12-31T11:32:16.927Z,98700.56
2022-12-31T11:37:02.599Z,98703.22
2022-12-31T11:41:19.964Z,98700.03
2022-12-31T11:45:50.753Z,98708.53
2022-12-31T11:50:27.346Z,98710.78
2022-12-31T11:55:12.697Z,98708.16
2022-12-31T11:59:24.338Z,98731.59
2022-12-31T12:03:42.299Z,98722.91
2022-12-31T12:07:55.689Z,98712.16
2022-12-31T12:12:07.262Z,98701.81
2022-12-31T12:16:21.301Z,98710.50
2022-12-31T12:20:37.089Z,98713.72
2022-12-31T12:25:13.307Z,98701.03
2022-12-31T12:29:31.189Z,98692.34
2022-12-31T12:33:45.473Z,98676.56
2022-12-31T12:38:05.680Z,98668.44
2022-12-31T12:42:17.175Z,98664.63
2022-12-31T12:46:49.163Z,98662.78
2022-12-31T12:51:01.516Z,98652.03
2022-12-31T12:55:29.607Z,98659.53
2022-12-31T12:59:51.442Z,98650.22
2022-12-31T13:04:33.522Z,98652.66
2022-12-31T13:09:18.609Z,98656.31
2022-12-31T13:13:45.014Z,98660.38
2022-12-31T13:18:22.800Z,98667.03
2022-12-31T13:22:47.861Z,98649.81
2022-12-31T13:27:10.064Z,98654.28
2022-12-31T13:31:31.791Z,98650.63
2022-12-31T13:35:52.124Z,98655.06
2022-12-31T13:40:17.267Z,98662.56
2022-12-31T13:44:36.248Z,98648.78
2022-12-31T13:48:56.106Z,98655.06
2022-12-31T13:53:25.804Z,98661.13
2022-12-31T13:57:54.676Z,98657.91
2022-12-31T14:02:06.199Z,98667.78
2022-12-31T14:06:27.214Z,98667.97
2022-12-31T14:11:01.759Z,98667.16
2022-12-31T14:15:16.126Z,98664.31
2022-12-31T14:19:52.457Z,98653.78
2022-12-31T14:24:14.342Z,98653.78
2022-12-31T14:28:46.968Z,98659.81
2022-12-31T14:33:22.340Z,98654.16
2022-12-31T14:37:52.281Z,98653.09
2022-12-31T14:42:33.284Z,98661.13
2022-12-31T14:47:22.790Z,98666.59
2022-12-31T14:51:36.473Z,98650.16
2022-12-31T14:55:57.871Z,98648.34
2022-12-31T15:00:24.855Z,98663.91
2022-12-31T15:04:44.743Z,98655.75
2022-12-31T15:08:56.179Z,98665.22
2022-12-31T15:13:41.243Z,98678.13
2022-12-31T15:17:52.641Z,98666.97
2022-12-31T15:22:20.458Z,98669.53
2022-12-31T15:26:32.404Z,98679.22
2022-12-31T15:30:47.123Z,98668.25
2022-12-31T15:35:21.523Z,98675.56
2022-12-31T15:39:32.945Z,98681.41
2022-12-31T15:43:57.555Z,98689.81
2022-12-31T15:48:17.931Z,98694.59
2022-12-31T15:52:59.904Z,98695.25
2022-12-31T15:57:20.810Z,98690.75
2022-12-31T16:01:34.881Z,98699.59
2022-12-31T16:05:46.437Z,98693.53
2022-12-31T16:10:00.127Z,98710.09
2022-12-31T16:14:20.250Z,98704.84
2022-12-31T16:18:43.464Z,98704.03
2022-12-31T16:22:58.913Z,98702.47
2022-12-31T16:27:16.283Z,98692.63
2022-12-31T16:31:29.990Z,98682.97
2022-12-31T16:35:41.578Z,98683.59
2022-12-31T16:39:56.022Z,98687.19
2022-12-31T16:44:25.225Z,98695.28
2022-12-31T16:48:37.467Z,98696.47
2022-12-31T16:52:53.955Z,98683.78
2022-12-31T16:57:06.356Z,98683.59
2022-12-31T17:01:22.579Z,98681.94
2022-12-31T17:05:52.687Z,98682.72
2022-12-31T17:10:07.203Z,98685.97
2022-12-31T17:14:23.189Z,98691.94
2022-12-31T17:18:38.621Z,98687.50
2022-12-31T17:22:52.642Z,98698.38
2022-12-31T17:27:07.328Z,98701.09
2022-12-31T17:31:28.940Z,98694.69
2022-12-31T17:35:42.740Z,98696.25
2022-12-31T17:40:24.627Z,98696.63
2022-12-31T17:44:38.023Z,98704.75
2022-12-31T17:48:53.828Z,98704.31
2022-12-31T17:53:12.750Z,98711.06
2022-12-31T17:57:27.512Z,98709.50
2022-12-31T18:01:39.253Z,98713.63
2022-12-31T18:05:51.195Z,98722.75
2022-12-31T18:10:02.672Z,98729.38
2022-12-31T18:14:15.631Z,98720.91
2022-12-31T18:18:29.497Z,98736.13
2022-12-31T18:22:43.235Z,98737.47
2022-12-31T18:26:55.161Z,98727.34
2022-12-31T18:31:06.995Z,98739.59
2022-12-31T18:35:49.006Z,98724.25
2022-12-31T18:39:52.226Z,98730.59
2022-12-31T18:44:03.833Z,98722.00
2022-12-31T18:48:16.523Z,98717.50
2022-12-31T18:52:28.003Z,98727.97
2022-12-31T18:56:44.863Z,98721.84
2022-12-31T19:00:58.757Z,98724.47
2022-12-31T19:05:29.170Z,98737.31
2022-12-31T19:09:45.737Z,98723.56
2022-12-31T19:13:57.946Z,98723.81
2022-12-31T19:18:09.682Z,98722.81
2022-12-31T19:22:21.204Z,98726.56
2022-12-31T19:26:34.773Z,98731.56
2022-12-31T19:30:49.130Z,98743.94
2022-12-31T19:35:00.686Z,98744.75
2022-12-31T19:39:18.559Z,98738.44
2022-12-31T19:43:30.191Z,98744.91
2022-12-31T19:47:41.842Z,98752.19
2022-12-31T19:51:53.369Z,98752.78
2022-12-31T19:56:05.609Z,98744.63
2022-12-31T20:00:18.426Z,98747.06
2022-12-31T20:04:29.981Z,98743.25
2022-12-31T20:08:46.396Z,98749.59
2022-12-31T20:12:57.891Z,98754.09
2022-12-31T20:17:09.489Z,98736.31
2022-12-31T20:21:23.362Z,98753.66
2022-12-31T20:25:34.852Z,98755.22
2022-12-31T20:29:46.308Z,98758.13
2022-12-31T20:33:57.906Z,98755.94
2022-12-31T20:38:09.403Z,98741.84
2022-12-31T20:42:20.923Z,98741.22
2022-12-31T20:46:32.676Z,98737.41
2022-12-31T20:50:54.214Z,98749.16
2022-12-31T20:55:06.191Z,98753.66
2022-12-31T20:59:17.705Z,98744.28
2022-12-31T21:08:00.648Z,98764.34
2022-12-31T21:12:30.739Z,98763.63
2022-12-31T21:16:42.232Z,98771.94
2022-12-31T21:20:53.721Z,98787.50
2022-12-31T21:25:05.822Z,98788.47
2022-12-31T21:29:17.315Z,98792.63
2022-12-31T21:33:29.052Z,98796.63
2022-12-31T21:37:59.155Z,98810.88
2022-12-31T21:42:12.350Z,98797.63
2022-12-31T21:46:24.057Z,98811.63
2022-12-31T21:50:35.667Z,98805.72
2022-12-31T21:55:05.776Z,98810.88
2022-12-31T21:59:36.726Z,98812.78
2022-12-31T22:03:51.060Z,98821.56
2022-12-31T22:08:02.880Z,98817.22
2022-12-31T22:12:14.445Z,98816.84
2022-12-31T22:16:25.991Z,98825.88
2022-12-31T22:20:37.545Z,98820.84
2022-12-31T22:24:49.053Z,98823.09
2022-12-31T22:29:00.561Z,98830.97
